createdAt,value
2022-12-23T00:01:00.285Z,7.88
2022-12-23T00:06:01.532Z,7.89
2022-12-23T00:11:02.920Z,7.78
2022-12-23T00:16:04.305Z,7.62
2022-12-23T00:21:08.782Z,7.41
2022-12-23T00:26:10.583Z,7.54
2022-12-23T00:31:11.814Z,7.75
2022-12-23T00:36:13.365Z,7.89
2022-12-23T00:41:33.482Z,7.80
2022-12-23T00:46:34.738Z,7.93
2022-12-23T00:51:36.041Z,7.88
2022-12-23T00:56:37.401Z,7.84
2022-12-23T01:01:57.540Z,7.67
2022-12-23T01:06:58.911Z,7.77
2022-12-23T01:12:00.206Z,7.83
2022-12-23T01:17:01.469Z,7.53
2022-12-23T01:22:03.078Z,7.77
2022-12-23T01:27:04.377Z,7.69
2022-12-23T01:32:05.722Z,7.75
2022-12-23T01:37:06.988Z,7.54
2022-12-23T01:42:27.032Z,7.52
2022-12-23T01:47:28.304Z,7.58
2022-12-23T01:52:29.563Z,7.10
2022-12-23T01:57:30.839Z,7.26
2022-12-23T02:02:51.135Z,7.03
2022-12-23T02:08:11.336Z,7.26
2022-12-23T02:13:12.629Z,7.42
2022-12-23T02:18:13.912Z,7.46
2022-12-23T02:23:15.211Z,7.73
2022-12-23T02:28:16.637Z,7.64
2022-12-23T02:33:17.871Z,7.32
2022-12-23T02:38:19.127Z,7.42
2022-12-23T02:43:20.401Z,7.55
2022-12-23T02:48:21.613Z,7.48
2022-12-23T02:53:22.879Z,7.75
2022-12-23T02:58:24.100Z,7.94
2022-12-23T03:03:25.369Z,7.99
2022-12-23T03:08:26.695Z,7.65
2022-12-23T03:13:27.916Z,7.38
2022-12-23T03:18:29.212Z,7.44
2022-12-23T03:23:30.471Z,7.76
2022-12-23T03:28:31.680Z,7.49
2022-12-23T03:33:32.964Z,7.51
2022-12-23T03:38:34.238Z,7.19
2022-12-23T03:43:35.515Z,7.53
2022-12-23T03:48:36.739Z,7.49
2022-12-23T03:53:38.003Z,7.35
2022-12-23T03:58:39.216Z,7.49
2022-12-23T04:03:40.526Z,7.40
2022-12-23T04:08:41.856Z,7.44
2022-12-23T04:13:43.099Z,7.48
2022-12-23T04:18:44.410Z,7.73
2022-12-23T04:23:45.680Z,7.50
2022-12-23T04:28:46.912Z,7.48
2022-12-23T04:33:48.144Z,7.46
2022-12-23T04:38:49.350Z,7.37
2022-12-23T04:43:52.948Z,7.64
2022-12-23T04:48:54.783Z,7.47
2022-12-23T04:53:56.016Z,7.24
2022-12-23T04:58:57.292Z,6.78
2022-12-23T05:03:58.637Z,7.28
2022-12-23T05:08:59.930Z,7.43
2022-12-23T05:14:01.216Z,6.91
2022-12-23T05:19:02.460Z,7.45
2022-12-23T05:24:03.934Z,7.69
2022-12-23T05:29:06.208Z,7.59
2022-12-23T05:34:07.598Z,7.59
2022-12-23T05:39:08.968Z,7.48
2022-12-23T05:44:10.186Z,7.60
2022-12-23T05:49:11.489Z,7.39
2022-12-23T05:54:12.751Z,7.59
2022-12-23T05:59:13.999Z,7.72
2022-12-23T06:04:17.196Z,7.60
2022-12-23T06:09:18.519Z,7.81
2022-12-23T06:14:25.154Z,7.73
2022-12-23T06:19:29.903Z,7.70
2022-12-23T06:24:31.159Z,7.86
2022-12-23T06:29:32.437Z,7.87
2022-12-23T06:34:33.669Z,7.93
2022-12-23T06:39:34.875Z,7.76
2022-12-23T06:44:36.095Z,7.83
2022-12-23T06:49:37.362Z,7.87
2022-12-23T06:54:38.585Z,7.91
2022-12-23T06:59:39.821Z,7.50
2022-12-23T07:04:41.062Z,8.01
2022-12-23T07:09:42.357Z,7.89
2022-12-23T07:14:43.699Z,7.98
2022-12-23T07:19:45.000Z,7.82
2022-12-23T07:24:46.214Z,7.52
2022-12-23T07:29:47.484Z,7.52
2022-12-23T07:34:48.747Z,7.31
2022-12-23T07:39:49.983Z,7.56
2022-12-23T07:44:51.229Z,7.63
2022-12-23T07:49:52.438Z,7.84
2022-12-23T07:54:53.695Z,7.81
2022-12-23T07:59:54.964Z,7.53
2022-12-23T08:04:57.273Z,7.39
2022-12-23T08:09:58.536Z,7.03
2022-12-23T08:14:59.777Z,7.06
2022-12-23T08:20:01.001Z,7.31
2022-12-23T08:25:02.276Z,7.33
2022-12-23T08:30:03.580Z,7.49
2022-12-23T08:35:04.807Z,8.08
2022-12-23T08:40:06.135Z,8.35
2022-12-23T08:45:07.391Z,8.29
2022-12-23T08:50:08.651Z,8.35
2022-12-23T08:55:09.863Z,8.60
2022-12-23T09:00:11.188Z,8.53
2022-12-23T09:05:12.426Z,8.55
2022-12-23T09:10:13.635Z,8.41
2022-12-23T09:15:14.903Z,8.39
2022-12-23T09:20:16.125Z,8.84
2022-12-23T09:25:17.471Z,8.79
2022-12-23T09:30:18.845Z,9.14
2022-12-23T09:35:20.255Z,9.44
2022-12-23T09:40:21.578Z,9.68
2022-12-23T09:45:22.827Z,9.53
2022-12-23T09:50:25.342Z,9.47
2022-12-23T09:55:26.607Z,9.72
2022-12-23T10:00:27.892Z,9.83
2022-12-23T10:05:29.277Z,9.99
2022-12-23T10:10:30.665Z,10.06
2022-12-23T10:15:32.023Z,10.23
2022-12-23T10:20:33.266Z,10.36
2022-12-23T10:25:34.537Z,10.52
2022-12-23T10:31:05.993Z,10.70
2022-12-23T10:35:57.862Z,10.80
2022-12-23T10:41:03.884Z,10.75
2022-12-23T10:46:10.325Z,10.85
2022-12-23T10:51:11.665Z,10.80
2022-12-23T10:56:12.914Z,10.68
2022-12-23T11:01:23.807Z,10.77
2022-12-23T11:06:31.582Z,10.76
2022-12-23T11:11:39.242Z,10.77
2022-12-23T11:16:40.697Z,10.68
2022-12-23T11:21:42.040Z,10.60
2022-12-23T11:26:44.517Z,10.64
2022-12-23T11:31:45.819Z,10.78
2022-12-23T11:36:52.981Z,10.95
2022-12-23T11:41:56.147Z,11.05
2022-12-23T11:46:57.464Z,10.98
2022-12-23T11:51:58.716Z,10.99
2022-12-23T11:57:00.090Z,11.08
2022-12-23T12:02:01.517Z,11.12
2022-12-23T12:07:02.935Z,11.05
2022-12-23T12:12:04.384Z,11.15
2022-12-23T12:17:05.702Z,11.00
2022-12-23T12:22:07.083Z,11.09
2022-12-23T12:27:08.417Z,11.14
2022-12-23T12:32:09.717Z,11.06
2022-12-23T12:37:10.981Z,11.12
2022-12-23T12:42:12.485Z,11.42
2022-12-23T12:47:36.043Z,11.33
2022-12-23T12:52:34.965Z,10.81
2022-12-23T12:57:38.687Z,11.33
2022-12-23T13:02:39.993Z,11.31
2022-12-23T13:07:41.423Z,11.46
2022-12-23T13:12:42.648Z,11.33
2022-12-23T13:17:44.262Z,11.32
2022-12-23T13:22:47.844Z,11.32
2022-12-23T13:27:49.263Z,11.07
2022-12-23T13:32:51.752Z,11.11
2022-12-23T13:37:53.811Z,11.40
2022-12-23T13:42:55.088Z,11.61
2022-12-23T13:48:01.129Z,11.58
2022-12-23T13:53:05.672Z,11.61
2022-12-23T13:58:06.944Z,11.38
2022-12-23T14:03:08.256Z,10.75
2022-12-23T14:08:09.500Z,11.25
2022-12-23T14:13:10.739Z,11.19
2022-12-23T14:18:11.986Z,11.30
2022-12-23T14:23:13.277Z,11.33
2022-12-23T14:28:14.531Z,11.34
2022-12-23T14:33:15.818Z,11.28
2022-12-23T14:38:17.036Z,11.34
2022-12-23T14:43:18.399Z,10.93
2022-12-23T14:48:19.649Z,10.83
2022-12-23T14:53:20.925Z,10.94
2022-12-23T14:58:22.284Z,10.65
2022-12-23T15:03:23.707Z,10.54
2022-12-23T15:08:25.076Z,10.58
2022-12-23T15:13:26.304Z,10.85
2022-12-23T15:18:28.441Z,10.83
2022-12-23T15:23:29.827Z,10.38
2022-12-23T15:28:31.039Z,10.73
2022-12-23T15:34:02.391Z,10.53
2022-12-23T15:38:56.517Z,10.71
2022-12-23T15:43:58.104Z,10.86
2022-12-23T15:48:59.399Z,10.52
2022-12-23T15:54:00.777Z,10.28
2022-12-23T15:59:02.061Z,10.40
2022-12-23T16:04:03.457Z,10.41
2022-12-23T16:09:04.843Z,10.23
2022-12-23T16:14:06.063Z,10.36
2022-12-23T16:19:07.297Z,10.60
2022-12-23T16:24:08.659Z,10.67
2022-12-23T16:29:10.009Z,10.77
2022-12-23T16:34:11.329Z,10.83
2022-12-23T16:39:12.607Z,10.90
2022-12-23T16:44:14.022Z,10.93
2022-12-23T16:49:15.308Z,10.95
2022-12-23T16:54:16.600Z,10.97
2022-12-23T16:59:18.198Z,10.97
2022-12-23T17:04:19.439Z,11.03
2022-12-23T17:09:21.149Z,11.13
2022-12-23T17:14:22.837Z,11.10
2022-12-23T17:19:28.985Z,11.13
2022-12-23T17:24:31.285Z,11.05
2022-12-23T17:29:32.565Z,11.13
2022-12-23T17:34:33.867Z,11.15
2022-12-23T17:39:35.109Z,11.25
2022-12-23T17:44:36.331Z,11.31
2022-12-23T17:49:37.532Z,11.25
2022-12-23T17:54:38.777Z,11.32
2022-12-23T17:59:40.055Z,11.33
2022-12-23T18:04:41.348Z,11.47
2022-12-23T18:09:42.687Z,11.50
2022-12-23T18:14:44.973Z,12.18
2022-12-23T18:19:46.261Z,11.88
2022-12-23T18:24:47.485Z,11.93
2022-12-23T18:29:48.865Z,11.69
2022-12-23T18:34:50.247Z,11.77
2022-12-23T18:39:51.523Z,11.64
2022-12-23T18:44:52.747Z,11.72
2022-12-23T18:49:53.988Z,11.77
2022-12-23T18:54:56.287Z,11.77
2022-12-23T18:59:57.563Z,11.71
2022-12-23T19:04:58.817Z,11.84
2022-12-23T19:10:00.097Z,11.84
2022-12-23T19:15:01.407Z,11.89
2022-12-23T19:20:02.705Z,11.91
2022-12-23T19:25:06.329Z,11.90
2022-12-23T19:30:08.171Z,11.97
2022-12-23T19:35:09.383Z,12.05
2022-12-23T19:40:10.674Z,11.92
2022-12-23T19:45:11.974Z,12.02
2022-12-23T19:50:13.331Z,12.03
2022-12-23T19:55:15.595Z,11.84
2022-12-23T20:00:16.925Z,12.04
2022-12-23T20:05:18.187Z,12.19
2022-12-23T20:10:19.501Z,12.32
2022-12-23T20:15:20.719Z,12.25
2022-12-23T20:20:21.956Z,12.36
2022-12-23T20:25:23.260Z,12.25
2022-12-23T20:30:24.502Z,12.44
2022-12-23T20:35:25.765Z,12.25
2022-12-23T20:40:27.007Z,12.35
2022-12-23T20:45:28.239Z,12.26
2022-12-23T20:50:29.473Z,12.39
2022-12-23T20:55:30.724Z,12.32
2022-12-23T21:00:31.941Z,12.26
2022-12-23T21:05:33.187Z,12.33
2022-12-23T21:10:35.749Z,12.22
2022-12-23T21:15:37.022Z,12.16
2022-12-23T21:20:38.305Z,12.27
2022-12-23T21:25:40.197Z,12.17
2022-12-23T21:30:41.480Z,12.13
2022-12-23T21:35:42.748Z,11.83
2022-12-23T21:40:44.016Z,11.93
2022-12-23T21:45:45.774Z,11.93
2022-12-23T21:50:47.198Z,11.84
2022-12-23T21:55:48.637Z,11.90
2022-12-23T22:00:51.136Z,11.97
2022-12-23T22:05:52.471Z,12.09
2022-12-23T22:10:53.707Z,12.14
2022-12-23T22:15:55.060Z,11.98
2022-12-23T22:20:56.394Z,11.72
2022-12-23T22:25:57.680Z,11.69
2022-12-23T22:30:58.963Z,11.60
2022-12-23T22:36:00.286Z,11.73
2022-12-23T22:41:01.579Z,11.69
2022-12-23T22:46:02.860Z,11.48
2022-12-23T22:51:04.364Z,11.49
2022-12-23T22:56:05.907Z,11.52
2022-12-23T23:01:07.630Z,11.27
2022-12-23T23:06:08.903Z,10.91
2022-12-23T23:11:10.520Z,10.94
2022-12-23T23:16:11.916Z,10.92
2022-12-23T23:21:13.271Z,11.07
2022-12-23T23:26:14.849Z,10.93
2022-12-23T23:36:40.985Z,11.22
2022-12-23T23:41:42.435Z,11.11
2022-12-23T23:46:43.851Z,11.35
2022-12-23T23:51:45.223Z,11.18
2022-12-23T23:56:46.521Z,11.43
